N62ET KMGM-KTLH
Flight info
| Callsign | N62ET |
|---|---|
| Flight time | 1h 1m |
| Altitude | 7000 |
| Route | RRS |
| Aircraft | DA62/L-SDFGRY/C |
Departure
| Time | 2026-05-05 10:30 |
|---|---|
| Airport | Montgomery Regional (Dannelly Field) Airport (KMGM) |
Arrival
| Time | 2026-05-05 11:31 |
|---|---|
| Airport | Tallahassee International Airport (KTLH) |
| Time | Latitude | Longitude | Altitude | Speed | Heading |
|---|---|---|---|---|---|
| 2026-05-05 10:24 | 32.30343 | -86.39401 | 201 ft | 0 kts | 347° |
| 2026-05-05 10:26 | 32.30351 | -86.39373 | 201 ft | 9 kts | 108° |
| 2026-05-05 10:26 | 32.30321 | -86.39269 | 199 ft | 17 kts | 91° |
| 2026-05-05 10:26 | 32.30283 | -86.39119 | 196 ft | 21 kts | 152° |
| 2026-05-05 10:26 | 32.30165 | -86.39096 | 196 ft | 0 kts | 186° |
| 2026-05-05 10:27 | 32.30165 | -86.39097 | 196 ft | 0 kts | 186° |
| 2026-05-05 10:27 | 32.30165 | -86.39096 | 196 ft | 0 kts | 186° |
| 2026-05-05 10:28 | 32.30165 | -86.39097 | 196 ft | 2 kts | 185° |
| 2026-05-05 10:28 | 32.30132 | -86.39100 | 197 ft | 6 kts | 185° |
| 2026-05-05 10:28 | 32.30077 | -86.39120 | 198 ft | 10 kts | 239° |
| 2026-05-05 10:28 | 32.30097 | -86.39414 | 202 ft | 65 kts | 276° |
| 2026-05-05 10:29 | 32.30156 | -86.40068 | 283 ft | 84 kts | 277° |
| 2026-05-05 10:29 | 32.30213 | -86.40773 | 438 ft | 91 kts | 276° |
| 2026-05-05 10:29 | 32.30251 | -86.41539 | 582 ft | 97 kts | 272° |
| 2026-05-05 10:29 | 32.30267 | -86.42349 | 709 ft | 105 kts | 272° |
| 2026-05-05 10:30 | 32.30210 | -86.43218 | 991 ft | 106 kts | 247° |
| 2026-05-05 10:30 | 32.29707 | -86.43798 | 1300 ft | 104 kts | 202° |
| 2026-05-05 10:30 | 32.28998 | -86.43960 | 1595 ft | 105 kts | 187° |
| 2026-05-05 10:30 | 32.28275 | -86.44045 | 1880 ft | 106 kts | 186° |
| 2026-05-05 10:31 | 32.27543 | -86.44123 | 2165 ft | 107 kts | 186° |
| 2026-05-05 10:31 | 32.26792 | -86.44199 | 2453 ft | 108 kts | 186° |
| 2026-05-05 10:31 | 32.26045 | -86.44270 | 2736 ft | 109 kts | 186° |
| 2026-05-05 10:31 | 32.25289 | -86.44338 | 3019 ft | 110 kts | 186° |
| 2026-05-05 10:32 | 32.24526 | -86.44361 | 3295 ft | 112 kts | 169° |
| 2026-05-05 10:32 | 32.23864 | -86.43895 | 3576 ft | 113 kts | 136° |
| 2026-05-05 10:32 | 32.23298 | -86.43240 | 3858 ft | 114 kts | 134° |
| 2026-05-05 10:32 | 32.22729 | -86.42575 | 4137 ft | 116 kts | 135° |
| 2026-05-05 10:33 | 32.22148 | -86.41909 | 4417 ft | 117 kts | 135° |
| 2026-05-05 10:33 | 32.21556 | -86.41245 | 4696 ft | 118 kts | 136° |
| 2026-05-05 10:33 | 32.20957 | -86.40581 | 4972 ft | 120 kts | 137° |
| 2026-05-05 10:33 | 32.20340 | -86.39905 | 5251 ft | 121 kts | 137° |
| 2026-05-05 10:34 | 32.19718 | -86.39228 | 5529 ft | 122 kts | 138° |
| 2026-05-05 10:34 | 32.19088 | -86.38546 | 5799 ft | 123 kts | 138° |
| 2026-05-05 10:34 | 32.18453 | -86.37863 | 6074 ft | 125 kts | 139° |
| 2026-05-05 10:34 | 32.17808 | -86.37169 | 6351 ft | 126 kts | 139° |
| 2026-05-05 10:35 | 32.17152 | -86.36467 | 6629 ft | 127 kts | 140° |
| 2026-05-05 10:35 | 32.16490 | -86.35758 | 6853 ft | 134 kts | 140° |
| 2026-05-05 10:35 | 32.15751 | -86.34974 | 6903 ft | 153 kts | 140° |
| 2026-05-05 10:35 | 32.14902 | -86.34074 | 6907 ft | 169 kts | 140° |
| 2026-05-05 10:36 | 32.14001 | -86.33116 | 6897 ft | 175 kts | 140° |
| 2026-05-05 10:36 | 32.13083 | -86.32136 | 6917 ft | 174 kts | 144° |
| 2026-05-05 10:36 | 32.12195 | -86.31170 | 6903 ft | 166 kts | 143° |
| 2026-05-05 10:36 | 32.11341 | -86.30264 | 6893 ft | 161 kts | 143° |
| 2026-05-05 10:37 | 32.10523 | -86.29397 | 6893 ft | 157 kts | 143° |
| 2026-05-05 10:37 | 32.09718 | -86.28542 | 6894 ft | 155 kts | 143° |
| 2026-05-05 10:37 | 32.08919 | -86.27694 | 6894 ft | 153 kts | 143° |
| 2026-05-05 10:37 | 32.08126 | -86.26852 | 6895 ft | 152 kts | 143° |
| 2026-05-05 10:38 | 32.07343 | -86.26021 | 6895 ft | 151 kts | 144° |
| 2026-05-05 10:38 | 32.06569 | -86.25198 | 6896 ft | 151 kts | 143° |
| 2026-05-05 10:38 | 32.05780 | -86.24360 | 6896 ft | 151 kts | 143° |
| 2026-05-05 10:38 | 32.05009 | -86.23542 | 6896 ft | 150 kts | 143° |
| 2026-05-05 10:39 | 32.04233 | -86.22717 | 6896 ft | 150 kts | 143° |
| 2026-05-05 10:39 | 32.03455 | -86.21891 | 6896 ft | 150 kts | 143° |
| 2026-05-05 10:39 | 32.02672 | -86.21059 | 6896 ft | 150 kts | 143° |
| 2026-05-05 10:39 | 32.01902 | -86.20242 | 6896 ft | 150 kts | 143° |
| 2026-05-05 10:40 | 32.01120 | -86.19411 | 6896 ft | 150 kts | 143° |
| 2026-05-05 10:40 | 32.00350 | -86.18594 | 6896 ft | 150 kts | 143° |
| 2026-05-05 10:40 | 31.99567 | -86.17763 | 6896 ft | 150 kts | 143° |
| 2026-05-05 10:40 | 31.98788 | -86.16937 | 6896 ft | 150 kts | 143° |
| 2026-05-05 10:41 | 31.98018 | -86.16119 | 6896 ft | 150 kts | 143° |
| 2026-05-05 10:41 | 31.97238 | -86.15293 | 6895 ft | 150 kts | 143° |
| 2026-05-05 10:41 | 31.96470 | -86.14478 | 6895 ft | 150 kts | 143° |
| 2026-05-05 10:41 | 31.95688 | -86.13650 | 6895 ft | 150 kts | 143° |
| 2026-05-05 10:42 | 31.94135 | -86.12004 | 6895 ft | 150 kts | 143° |
| 2026-05-05 10:42 | 31.93358 | -86.11181 | 6895 ft | 150 kts | 143° |
| 2026-05-05 10:42 | 31.92588 | -86.10365 | 6895 ft | 150 kts | 143° |
| 2026-05-05 10:43 | 31.91813 | -86.09545 | 6895 ft | 150 kts | 143° |
| 2026-05-05 10:43 | 31.91037 | -86.08724 | 6895 ft | 150 kts | 143° |
| 2026-05-05 10:43 | 31.90251 | -86.07893 | 6895 ft | 150 kts | 143° |
| 2026-05-05 10:43 | 31.89479 | -86.07075 | 6899 ft | 150 kts | 143° |
| 2026-05-05 10:44 | 31.88697 | -86.06248 | 6900 ft | 150 kts | 143° |
| 2026-05-05 10:44 | 31.87914 | -86.05421 | 6900 ft | 151 kts | 143° |
| 2026-05-05 10:44 | 31.87134 | -86.04596 | 6900 ft | 151 kts | 143° |
| 2026-05-05 10:44 | 31.86351 | -86.03768 | 6900 ft | 151 kts | 143° |
| 2026-05-05 10:45 | 31.85574 | -86.02948 | 6900 ft | 151 kts | 143° |
| 2026-05-05 10:45 | 31.84785 | -86.02115 | 6900 ft | 151 kts | 143° |
| 2026-05-05 10:45 | 31.84005 | -86.01290 | 6900 ft | 151 kts | 143° |
| 2026-05-05 10:45 | 31.83230 | -86.00472 | 6900 ft | 151 kts | 143° |
| 2026-05-05 10:46 | 31.82440 | -85.99638 | 6900 ft | 151 kts | 143° |
| 2026-05-05 10:46 | 31.81662 | -85.98817 | 6900 ft | 151 kts | 143° |
| 2026-05-05 10:46 | 31.80877 | -85.97988 | 6900 ft | 151 kts | 143° |
| 2026-05-05 10:46 | 31.80094 | -85.97162 | 6900 ft | 151 kts | 143° |
| 2026-05-05 10:47 | 31.79308 | -85.96333 | 6900 ft | 151 kts | 143° |
| 2026-05-05 10:47 | 31.78527 | -85.95510 | 6900 ft | 151 kts | 143° |
| 2026-05-05 10:47 | 31.77740 | -85.94680 | 6900 ft | 151 kts | 143° |
| 2026-05-05 10:47 | 31.76961 | -85.93860 | 6900 ft | 151 kts | 143° |
| 2026-05-05 10:48 | 31.76173 | -85.93029 | 6900 ft | 151 kts | 143° |
| 2026-05-05 10:48 | 31.75387 | -85.92201 | 6900 ft | 151 kts | 143° |
| 2026-05-05 10:48 | 31.74610 | -85.91383 | 6900 ft | 151 kts | 143° |
| 2026-05-05 10:48 | 31.73830 | -85.90561 | 6900 ft | 151 kts | 143° |
| 2026-05-05 10:49 | 31.73040 | -85.89730 | 6900 ft | 151 kts | 143° |
| 2026-05-05 10:49 | 31.72257 | -85.88905 | 6900 ft | 151 kts | 143° |
| 2026-05-05 10:49 | 31.71479 | -85.88088 | 6900 ft | 151 kts | 143° |
| 2026-05-05 10:49 | 31.70698 | -85.87266 | 6899 ft | 151 kts | 143° |
| 2026-05-05 10:50 | 31.69909 | -85.86437 | 6899 ft | 151 kts | 143° |
| 2026-05-05 10:50 | 31.69124 | -85.85611 | 6899 ft | 151 kts | 143° |
| 2026-05-05 10:50 | 31.68342 | -85.84789 | 6899 ft | 151 kts | 143° |
| 2026-05-05 10:50 | 31.67558 | -85.83965 | 6899 ft | 151 kts | 143° |
| 2026-05-05 10:51 | 31.66776 | -85.83144 | 6899 ft | 151 kts | 143° |
| 2026-05-05 10:51 | 31.65986 | -85.82313 | 6899 ft | 151 kts | 143° |
| 2026-05-05 10:51 | 31.65163 | -85.81470 | 6890 ft | 160 kts | 140° |
| 2026-05-05 10:51 | 31.64318 | -85.80581 | 6902 ft | 166 kts | 140° |
| 2026-05-05 10:52 | 31.63451 | -85.79665 | 6904 ft | 172 kts | 139° |
| 2026-05-05 10:52 | 31.62546 | -85.78711 | 6903 ft | 175 kts | 139° |
| 2026-05-05 10:52 | 31.61639 | -85.77756 | 6902 ft | 177 kts | 140° |
| 2026-05-05 10:52 | 31.60708 | -85.76778 | 6901 ft | 179 kts | 140° |
| 2026-05-05 10:53 | 31.59782 | -85.75805 | 6901 ft | 180 kts | 140° |
| 2026-05-05 10:53 | 31.58840 | -85.74818 | 6900 ft | 181 kts | 140° |
| 2026-05-05 10:53 | 31.57899 | -85.73830 | 6900 ft | 181 kts | 140° |
| 2026-05-05 10:53 | 31.56958 | -85.72845 | 6900 ft | 181 kts | 140° |
| 2026-05-05 10:54 | 31.56022 | -85.71864 | 6900 ft | 182 kts | 140° |
| 2026-05-05 10:54 | 31.55076 | -85.70874 | 6900 ft | 182 kts | 140° |
| 2026-05-05 10:54 | 31.54129 | -85.69882 | 6900 ft | 182 kts | 140° |
| 2026-05-05 10:54 | 31.53189 | -85.68899 | 6900 ft | 182 kts | 140° |
| 2026-05-05 10:55 | 31.52242 | -85.67909 | 6900 ft | 182 kts | 140° |
| 2026-05-05 10:55 | 31.51293 | -85.66916 | 6900 ft | 182 kts | 140° |
| 2026-05-05 10:55 | 31.50355 | -85.65936 | 6900 ft | 182 kts | 140° |
| 2026-05-05 10:55 | 31.49416 | -85.64953 | 6900 ft | 182 kts | 140° |
| 2026-05-05 10:56 | 31.48460 | -85.63954 | 6900 ft | 182 kts | 140° |
| 2026-05-05 10:56 | 31.47519 | -85.62972 | 6900 ft | 182 kts | 140° |
| 2026-05-05 10:56 | 31.46575 | -85.61986 | 6900 ft | 182 kts | 140° |
| 2026-05-05 10:56 | 31.45624 | -85.60993 | 6900 ft | 182 kts | 140° |
| 2026-05-05 10:57 | 31.44676 | -85.60004 | 6901 ft | 182 kts | 140° |
| 2026-05-05 10:57 | 31.43728 | -85.59014 | 6901 ft | 182 kts | 140° |
| 2026-05-05 10:57 | 31.42792 | -85.58038 | 6901 ft | 182 kts | 140° |
| 2026-05-05 10:57 | 31.41841 | -85.57046 | 6901 ft | 182 kts | 140° |
| 2026-05-05 10:58 | 31.40899 | -85.56063 | 6901 ft | 182 kts | 140° |
| 2026-05-05 10:58 | 31.39946 | -85.55070 | 6901 ft | 182 kts | 140° |
| 2026-05-05 10:58 | 31.39005 | -85.54089 | 6901 ft | 182 kts | 140° |
| 2026-05-05 10:58 | 31.38059 | -85.53104 | 6901 ft | 182 kts | 140° |
| 2026-05-05 10:59 | 31.37112 | -85.52118 | 6901 ft | 182 kts | 140° |
| 2026-05-05 10:59 | 31.36157 | -85.51124 | 6901 ft | 182 kts | 140° |
| 2026-05-05 10:59 | 31.35209 | -85.50137 | 6901 ft | 182 kts | 140° |
| 2026-05-05 10:59 | 31.34266 | -85.49155 | 6901 ft | 182 kts | 140° |
| 2026-05-05 11:00 | 31.33322 | -85.48174 | 6901 ft | 182 kts | 140° |
| 2026-05-05 11:00 | 31.32370 | -85.47184 | 6901 ft | 182 kts | 140° |
| 2026-05-05 11:00 | 31.31416 | -85.46192 | 6901 ft | 182 kts | 140° |
| 2026-05-05 11:00 | 31.30474 | -85.45213 | 6901 ft | 182 kts | 140° |
| 2026-05-05 11:01 | 31.29522 | -85.44223 | 6901 ft | 182 kts | 140° |
| 2026-05-05 11:01 | 31.28582 | -85.43221 | 6900 ft | 183 kts | 136° |
| 2026-05-05 11:01 | 31.27702 | -85.42165 | 6902 ft | 183 kts | 135° |
| 2026-05-05 11:01 | 31.26819 | -85.41086 | 6902 ft | 183 kts | 134° |
| 2026-05-05 11:02 | 31.25941 | -85.40007 | 6902 ft | 183 kts | 134° |
| 2026-05-05 11:02 | 31.25068 | -85.38932 | 6902 ft | 183 kts | 134° |
| 2026-05-05 11:02 | 31.24189 | -85.37850 | 6902 ft | 183 kts | 134° |
| 2026-05-05 11:02 | 31.23320 | -85.36779 | 6902 ft | 183 kts | 134° |
| 2026-05-05 11:03 | 31.22449 | -85.35706 | 6902 ft | 183 kts | 134° |
| 2026-05-05 11:03 | 31.21572 | -85.34626 | 6900 ft | 183 kts | 135° |
| 2026-05-05 11:03 | 31.20688 | -85.33538 | 6899 ft | 183 kts | 135° |
| 2026-05-05 11:03 | 31.19816 | -85.32465 | 6899 ft | 182 kts | 135° |
| 2026-05-05 11:04 | 31.18948 | -85.31398 | 6899 ft | 182 kts | 135° |
| 2026-05-05 11:04 | 31.18071 | -85.30318 | 6899 ft | 182 kts | 135° |
| 2026-05-05 11:04 | 31.17203 | -85.29250 | 6899 ft | 182 kts | 135° |
| 2026-05-05 11:04 | 31.16322 | -85.28166 | 6899 ft | 182 kts | 135° |
| 2026-05-05 11:05 | 31.15452 | -85.27098 | 6899 ft | 182 kts | 135° |
| 2026-05-05 11:05 | 31.14581 | -85.26028 | 6899 ft | 182 kts | 135° |
| 2026-05-05 11:05 | 31.13704 | -85.24949 | 6899 ft | 182 kts | 135° |
| 2026-05-05 11:05 | 31.12838 | -85.23885 | 6899 ft | 182 kts | 135° |
| 2026-05-05 11:06 | 31.11965 | -85.22814 | 6899 ft | 182 kts | 135° |
| 2026-05-05 11:06 | 31.11091 | -85.21741 | 6899 ft | 182 kts | 135° |
| 2026-05-05 11:06 | 31.10213 | -85.20676 | 6921 ft | 181 kts | 133° |
| 2026-05-05 11:06 | 31.09348 | -85.19621 | 6932 ft | 181 kts | 131° |
| 2026-05-05 11:07 | 31.08475 | -85.18544 | 6935 ft | 181 kts | 131° |
| 2026-05-05 11:07 | 31.07612 | -85.17480 | 6935 ft | 182 kts | 131° |
| 2026-05-05 11:07 | 31.06743 | -85.16412 | 6935 ft | 182 kts | 132° |
| 2026-05-05 11:07 | 31.05870 | -85.15340 | 6935 ft | 182 kts | 132° |
| 2026-05-05 11:08 | 31.04987 | -85.14257 | 6935 ft | 183 kts | 132° |
| 2026-05-05 11:08 | 31.04119 | -85.13193 | 6935 ft | 183 kts | 132° |
| 2026-05-05 11:08 | 31.03234 | -85.12109 | 6935 ft | 183 kts | 132° |
| 2026-05-05 11:08 | 31.02363 | -85.11043 | 6935 ft | 183 kts | 132° |
| 2026-05-05 11:09 | 31.01487 | -85.09971 | 6935 ft | 183 kts | 132° |
| 2026-05-05 11:09 | 31.00612 | -85.08900 | 6935 ft | 183 kts | 132° |
| 2026-05-05 11:09 | 30.99731 | -85.07822 | 6936 ft | 183 kts | 132° |
| 2026-05-05 11:09 | 30.98852 | -85.06748 | 6936 ft | 183 kts | 132° |
| 2026-05-05 11:10 | 30.97969 | -85.05669 | 6936 ft | 183 kts | 132° |
| 2026-05-05 11:10 | 30.97097 | -85.04602 | 6936 ft | 183 kts | 132° |
| 2026-05-05 11:10 | 30.96215 | -85.03525 | 6936 ft | 183 kts | 132° |
| 2026-05-05 11:10 | 30.95333 | -85.02447 | 6936 ft | 183 kts | 132° |
| 2026-05-05 11:11 | 30.94454 | -85.01375 | 6936 ft | 183 kts | 132° |
| 2026-05-05 11:11 | 30.93573 | -85.00299 | 6936 ft | 183 kts | 132° |
| 2026-05-05 11:11 | 30.92689 | -84.99221 | 6936 ft | 183 kts | 132° |
| 2026-05-05 11:11 | 30.91810 | -84.98148 | 6936 ft | 183 kts | 132° |
| 2026-05-05 11:12 | 30.90932 | -84.97078 | 6936 ft | 183 kts | 132° |
| 2026-05-05 11:12 | 30.90057 | -84.96010 | 6936 ft | 183 kts | 132° |
| 2026-05-05 11:12 | 30.89173 | -84.94933 | 6932 ft | 183 kts | 132° |
| 2026-05-05 11:12 | 30.88292 | -84.93860 | 6932 ft | 183 kts | 132° |
| 2026-05-05 11:13 | 30.87411 | -84.92787 | 6932 ft | 182 kts | 132° |
| 2026-05-05 11:13 | 30.86540 | -84.91727 | 6932 ft | 182 kts | 132° |
| 2026-05-05 11:13 | 30.85663 | -84.90659 | 6932 ft | 182 kts | 132° |
| 2026-05-05 11:13 | 30.84784 | -84.89589 | 6932 ft | 182 kts | 132° |
| 2026-05-05 11:14 | 30.83904 | -84.88518 | 6932 ft | 182 kts | 132° |
| 2026-05-05 11:14 | 30.83040 | -84.87466 | 6932 ft | 182 kts | 132° |
| 2026-05-05 11:14 | 30.82160 | -84.86396 | 6932 ft | 182 kts | 132° |
| 2026-05-05 11:14 | 30.81280 | -84.85327 | 6932 ft | 182 kts | 132° |
| 2026-05-05 11:15 | 30.80400 | -84.84257 | 6932 ft | 182 kts | 132° |
| 2026-05-05 11:15 | 30.79531 | -84.83202 | 6932 ft | 182 kts | 132° |
| 2026-05-05 11:15 | 30.78647 | -84.82127 | 6932 ft | 182 kts | 132° |
| 2026-05-05 11:15 | 30.77776 | -84.81069 | 6933 ft | 182 kts | 132° |
| 2026-05-05 11:16 | 30.76901 | -84.80006 | 6933 ft | 182 kts | 132° |
| 2026-05-05 11:16 | 30.76018 | -84.78935 | 6933 ft | 182 kts | 132° |
| 2026-05-05 11:16 | 30.75145 | -84.77876 | 6933 ft | 182 kts | 132° |
| 2026-05-05 11:16 | 30.74262 | -84.76804 | 6933 ft | 182 kts | 132° |
| 2026-05-05 11:17 | 30.73382 | -84.75737 | 6933 ft | 182 kts | 132° |
| 2026-05-05 11:17 | 30.72510 | -84.74681 | 6933 ft | 182 kts | 132° |
| 2026-05-05 11:17 | 30.71626 | -84.73609 | 6933 ft | 182 kts | 132° |
| 2026-05-05 11:17 | 30.70758 | -84.72559 | 6933 ft | 182 kts | 132° |
| 2026-05-05 11:18 | 30.69871 | -84.71484 | 6933 ft | 182 kts | 132° |
| 2026-05-05 11:18 | 30.68997 | -84.70425 | 6933 ft | 182 kts | 132° |
| 2026-05-05 11:18 | 30.68123 | -84.69366 | 6933 ft | 182 kts | 132° |
| 2026-05-05 11:18 | 30.67237 | -84.68295 | 6933 ft | 182 kts | 132° |
| 2026-05-05 11:19 | 30.66363 | -84.67237 | 6933 ft | 182 kts | 132° |
| 2026-05-05 11:19 | 30.65486 | -84.66175 | 6934 ft | 182 kts | 132° |
| 2026-05-05 11:19 | 30.64604 | -84.65110 | 6934 ft | 183 kts | 132° |
| 2026-05-05 11:19 | 30.63722 | -84.64043 | 6934 ft | 183 kts | 132° |
| 2026-05-05 11:20 | 30.62840 | -84.62977 | 6934 ft | 183 kts | 132° |
| 2026-05-05 11:20 | 30.61961 | -84.61916 | 6934 ft | 183 kts | 132° |
| 2026-05-05 11:20 | 30.61086 | -84.60857 | 6934 ft | 183 kts | 132° |
| 2026-05-05 11:20 | 30.60195 | -84.59782 | 6934 ft | 183 kts | 132° |
| 2026-05-05 11:21 | 30.59323 | -84.58730 | 6934 ft | 183 kts | 132° |
| 2026-05-05 11:21 | 30.58333 | -84.57822 | 6926 ft | 183 kts | 161° |
| 2026-05-05 11:21 | 30.57089 | -84.57680 | 6969 ft | 171 kts | 183° |
| 2026-05-05 11:21 | 30.55962 | -84.57709 | 6931 ft | 162 kts | 182° |
| 2026-05-05 11:22 | 30.54790 | -84.57707 | 6546 ft | 173 kts | 181° |
| 2026-05-05 11:22 | 30.53560 | -84.57681 | 6179 ft | 179 kts | 180° |
| 2026-05-05 11:22 | 30.52316 | -84.57645 | 5813 ft | 182 kts | 180° |
| 2026-05-05 11:22 | 30.51041 | -84.57607 | 5440 ft | 184 kts | 180° |
| 2026-05-05 11:23 | 30.49765 | -84.57577 | 5068 ft | 184 kts | 180° |
| 2026-05-05 11:23 | 30.48502 | -84.57558 | 4700 ft | 185 kts | 180° |
| 2026-05-05 11:23 | 30.47216 | -84.57540 | 4324 ft | 184 kts | 180° |
| 2026-05-05 11:23 | 30.45948 | -84.57523 | 3953 ft | 184 kts | 180° |
| 2026-05-05 11:24 | 30.44664 | -84.57507 | 3576 ft | 183 kts | 180° |
| 2026-05-05 11:24 | 30.43393 | -84.57490 | 3201 ft | 183 kts | 180° |
| 2026-05-05 11:24 | 30.42153 | -84.57474 | 2964 ft | 174 kts | 180° |
| 2026-05-05 11:24 | 30.40983 | -84.57456 | 2921 ft | 159 kts | 180° |
| 2026-05-05 11:25 | 30.40006 | -84.57064 | 2911 ft | 147 kts | 136° |
| 2026-05-05 11:25 | 30.39438 | -84.56132 | 2919 ft | 137 kts | 119° |
| 2026-05-05 11:25 | 30.39115 | -84.55124 | 2919 ft | 130 kts | 101° |
| 2026-05-05 11:25 | 30.39009 | -84.54099 | 2921 ft | 125 kts | 92° |
| 2026-05-05 11:26 | 30.38986 | -84.53106 | 2923 ft | 122 kts | 89° |
| 2026-05-05 11:26 | 30.38987 | -84.52137 | 2924 ft | 119 kts | 88° |
| 2026-05-05 11:26 | 30.38995 | -84.51183 | 2924 ft | 117 kts | 88° |
| 2026-05-05 11:26 | 30.39004 | -84.50240 | 2925 ft | 116 kts | 88° |
| 2026-05-05 11:27 | 30.39013 | -84.49312 | 2926 ft | 116 kts | 88° |
| 2026-05-05 11:27 | 30.39023 | -84.48298 | 2942 ft | 133 kts | 88° |
| 2026-05-05 11:27 | 30.39030 | -84.47248 | 2556 ft | 129 kts | 88° |
| 2026-05-05 11:27 | 30.39040 | -84.46221 | 2095 ft | 125 kts | 88° |
| 2026-05-05 11:28 | 30.39048 | -84.45255 | 1798 ft | 117 kts | 88° |
| 2026-05-05 11:28 | 30.39057 | -84.44370 | 1634 ft | 103 kts | 88° |
| 2026-05-05 11:28 | 30.39064 | -84.43559 | 1465 ft | 100 kts | 88° |
| 2026-05-05 11:28 | 30.39071 | -84.42760 | 1313 ft | 98 kts | 89° |
| 2026-05-05 11:29 | 30.39078 | -84.41984 | 1177 ft | 97 kts | 89° |
| 2026-05-05 11:29 | 30.39085 | -84.41205 | 1039 ft | 96 kts | 89° |
| 2026-05-05 11:29 | 30.39091 | -84.40425 | 905 ft | 95 kts | 89° |
| 2026-05-05 11:29 | 30.39098 | -84.39668 | 776 ft | 94 kts | 89° |
| 2026-05-05 11:30 | 30.39104 | -84.38906 | 647 ft | 94 kts | 89° |
| 2026-05-05 11:30 | 30.39110 | -84.38157 | 520 ft | 91 kts | 89° |
| 2026-05-05 11:30 | 30.39116 | -84.37419 | 398 ft | 90 kts | 89° |
| 2026-05-05 11:30 | 30.39120 | -84.36690 | 276 ft | 90 kts | 90° |
| 2026-05-05 11:31 | 30.39131 | -84.35967 | 161 ft | 89 kts | 88° |
| 2026-05-05 11:31 | 30.39135 | -84.35257 | 63 ft | 81 kts | 90° |
| 2026-05-05 11:31 | 30.39139 | -84.34742 | 70 ft | 50 kts | 90° |
| 2026-05-05 11:31 | 30.39158 | -84.34510 | 66 ft | 17 kts | 16° |
| 2026-05-05 11:32 | 30.39273 | -84.34502 | 64 ft | 15 kts | 348° |
| 2026-05-05 11:32 | 30.39304 | -84.34610 | 66 ft | 15 kts | 271° |
| 2026-05-05 11:32 | 30.39302 | -84.34740 | 65 ft | 17 kts | 267° |
| 2026-05-05 11:32 | 30.39300 | -84.34894 | 64 ft | 20 kts | 272° |
| 2026-05-05 11:33 | 30.39298 | -84.35068 | 62 ft | 23 kts | 269° |
| 2026-05-05 11:33 | 30.39296 | -84.35264 | 58 ft | 25 kts | 268° |
| 2026-05-05 11:33 | 30.39415 | -84.35348 | 54 ft | 23 kts | 358° |
| 2026-05-05 11:33 | 30.39561 | -84.35347 | 52 ft | 19 kts | 354° |
| 2026-05-05 11:34 | 30.39603 | -84.35293 | 52 ft | 8 kts | 97° |
| 2026-05-05 11:34 | 30.39602 | -84.35229 | 53 ft | 6 kts | 90° |
| 2026-05-05 11:34 | 30.39623 | -84.35212 | 53 ft | 0 kts | 1° |